Time;durP1;ratioP1;P1;durP2;ratioP2;P2;SDS_P1;SDS_P2;PMS_P1;PMS_P2;Temp;Humidity;BMP_temperature;BMP_pressure;BME280_temperature;BME280_humidity;BME280_pressure;Samples;Min_cycle;Max_cycle;Signal;HPM_P1;HPM_P2
2023/08/28 00:00:42;;;;;;;2.10;1.60;;;;;;;;;;5065096;28;20040;-78
2023/08/28 00:03:08;;;;;;;4.13;1.30;;;;;;;;;;5071006;28;20044;-77
2023/08/28 00:05:35;;;;;;;2.92;1.60;;;;;;;;;;5090818;28;20435;-77
2023/08/28 00:08:01;;;;;;;4.38;1.50;;;;;;;;;;5084948;28;20036;-77
2023/08/28 00:10:27;;;;;;;1.63;1.45;;;;;;;;;;5073620;28;20057;-78
2023/08/28 00:12:54;;;;;;;2.30;1.42;;;;;;;;;;5090317;28;20380;-78
2023/08/28 00:15:21;;;;;;;3.50;1.20;;;;;;;;;;5090196;28;20094;-78
2023/08/28 00:17:47;;;;;;;2.83;1.70;;;;;;;;;;5083347;28;20078;-78
2023/08/28 00:20:13;;;;;;;2.72;1.60;;;;;;;;;;5083234;28;20128;-78
2023/08/28 00:22:39;;;;;;;4.57;1.80;;;;;;;;;;5088161;28;20471;-77
2023/08/28 00:25:08;;;;;;;1.60;1.50;;;;;;;;;;5088330;28;20036;-77
2023/08/28 00:27:35;;;;;;;3.97;1.60;;;;;;;;;;5086403;28;20123;-77
2023/08/28 00:30:01;;;;;;;3.47;1.60;;;;;;;;;;5092041;28;20061;-78
2023/08/28 00:32:27;;;;;;;2.63;1.70;;;;;;;;;;5069911;28;20440;-77
2023/08/28 00:34:54;;;;;;;3.50;1.50;;;;;;;;;;5094275;28;20054;-77
2023/08/28 00:37:20;;;;;;;3.72;1.55;;;;;;;;;;5084986;28;20776;-77
2023/08/28 00:39:46;;;;;;;2.38;1.40;;;;;;;;;;5069612;28;20040;-77
2023/08/28 00:42:12;;;;;;;1.60;1.50;;;;;;;;;;5091366;28;20114;-78
2023/08/28 00:44:39;;;;;;;1.70;1.60;;;;;;;;;;5083682;28;20054;-78
2023/08/28 00:47:06;;;;;;;3.00;1.30;;;;;;;;;;5091044;28;20043;-78
2023/08/28 00:49:32;;;;;;;2.90;1.42;;;;;;;;;;5088061;28;20044;-78
2023/08/28 00:51:59;;;;;;;2.33;1.50;;;;;;;;;;5090865;28;20043;-78
2023/08/28 00:54:25;;;;;;;1.92;1.58;;;;;;;;;;5072449;28;20043;-78
2023/08/28 00:56:53;;;;;;;2.70;1.58;;;;;;;;;;5098411;28;20437;-78
2023/08/28 00:59:19;;;;;;;4.00;1.70;;;;;;;;;;5089272;28;20043;-77
2023/08/28 01:01:45;;;;;;;2.70;1.50;;;;;;;;;;5087283;28;20100;-77
2023/08/28 01:04:11;;;;;;;1.40;1.30;;;;;;;;;;5093320;28;20032;-77
2023/08/28 01:06:42;;;;;;;3.25;1.88;;;;;;;;;;5096578;28;20044;-78
2023/08/28 01:09:32;;;;;;;1.45;1.40;;;;;;;;;;5090343;28;20056;-77
2023/08/28 01:12:11;;;;;;;2.65;1.50;;;;;;;;;;5091854;28;20084;-77
2023/08/28 01:14:43;;;;;;;1.40;1.30;;;;;;;;;;5082074;28;20048;-78
2023/08/28 01:17:11;;;;;;;1.50;1.40;;;;;;;;;;5072112;28;20036;-77
2023/08/28 01:19:38;;;;;;;2.83;1.50;;;;;;;;;;5061787;28;20051;-78
2023/08/28 01:22:26;;;;;;;3.03;1.35;;;;;;;;;;5092088;28;20047;-77
2023/08/28 01:24:53;;;;;;;2.28;1.33;;;;;;;;;;5071896;28;20067;-77
2023/08/28 01:27:21;;;;;;;1.30;1.20;;;;;;;;;;5091802;28;20043;-77
2023/08/28 01:30:04;;;;;;;1.80;1.30;;;;;;;;;;5074331;28;20508;-77
2023/08/28 01:32:30;;;;;;;1.85;1.40;;;;;;;;;;5074935;28;20074;-78
2023/08/28 01:34:56;;;;;;;1.55;1.45;;;;;;;;;;5081271;28;20044;-78
2023/08/28 01:37:23;;;;;;;1.83;1.40;;;;;;;;;;5093804;28;20067;-77
2023/08/28 01:39:52;;;;;;;2.65;1.40;;;;;;;;;;5091485;28;20043;-77
2023/08/28 01:42:19;;;;;;;2.05;1.40;;;;;;;;;;5088861;28;20035;-78
2023/08/28 01:44:45;;;;;;;2.03;1.77;;;;;;;;;;5093444;28;20043;-78
2023/08/28 01:47:13;;;;;;;1.92;1.52;;;;;;;;;;5071149;28;20047;-78
2023/08/28 01:49:39;;;;;;;1.63;1.52;;;;;;;;;;5093319;28;20040;-78
2023/08/28 01:52:06;;;;;;;1.50;1.40;;;;;;;;;;5086500;28;20062;-78
2023/08/28 01:54:33;;;;;;;4.05;1.52;;;;;;;;;;5092931;28;20050;-77
2023/08/28 01:56:59;;;;;;;2.25;1.48;;;;;;;;;;5071568;28;20082;-78
2023/08/28 01:59:25;;;;;;;2.90;1.40;;;;;;;;;;5089134;28;20063;-78
2023/08/28 02:01:51;;;;;;;4.00;1.48;;;;;;;;;;5089802;28;20040;-78
2023/08/28 02:04:17;;;;;;;3.60;1.70;;;;;;;;;;5088855;28;20136;-77
2023/08/28 02:06:43;;;;;;;1.52;1.42;;;;;;;;;;5091270;28;20125;-77
2023/08/28 02:09:11;;;;;;;2.30;1.45;;;;;;;;;;5083934;28;20063;-78
2023/08/28 02:11:37;;;;;;;2.85;1.50;;;;;;;;;;5081494;28;20059;-78
2023/08/28 02:14:03;;;;;;;1.50;1.40;;;;;;;;;;5074372;28;20125;-78
2023/08/28 02:16:29;;;;;;;1.65;1.40;;;;;;;;;;5069671;28;20044;-78
2023/08/28 02:18:55;;;;;;;4.38;1.50;;;;;;;;;;5089873;28;20048;-78
2023/08/28 02:21:21;;;;;;;5.78;1.60;;;;;;;;;;5096475;28;20131;-78
2023/08/28 02:23:47;;;;;;;1.55;1.45;;;;;;;;;;5072339;28;20064;-78
2023/08/28 02:26:13;;;;;;;1.38;1.27;;;;;;;;;;5084730;28;20089;-77
2023/08/28 02:28:39;;;;;;;2.78;1.52;;;;;;;;;;5068538;28;20437;-78
2023/08/28 02:31:05;;;;;;;3.20;1.70;;;;;;;;;;5089128;28;20044;-77
2023/08/28 02:33:31;;;;;;;2.92;1.60;;;;;;;;;;5092593;28;20471;-78
2023/08/28 02:36:00;;;;;;;3.97;1.55;;;;;;;;;;5090248;28;20055;-78
2023/08/28 02:38:26;;;;;;;2.00;1.55;;;;;;;;;;5089378;28;20463;-78
2023/08/28 02:40:52;;;;;;;2.92;1.60;;;;;;;;;;5073231;28;20127;-78
2023/08/28 02:43:18;;;;;;;1.58;1.48;;;;;;;;;;5064985;28;20057;-78
2023/08/28 02:45:44;;;;;;;1.58;1.50;;;;;;;;;;5080325;28;20040;-78
2023/08/28 02:48:10;;;;;;;2.05;1.60;;;;;;;;;;5082867;28;20044;-78
2023/08/28 02:50:36;;;;;;;2.00;1.60;;;;;;;;;;5085521;28;20040;-78
2023/08/28 02:53:03;;;;;;;3.83;1.70;;;;;;;;;;5082867;28;20040;-76
2023/08/28 02:55:30;;;;;;;2.47;1.48;;;;;;;;;;5067694;28;20419;-79
2023/08/28 02:57:56;;;;;;;3.90;1.70;;;;;;;;;;5088618;28;20483;-79
2023/08/28 03:00:22;;;;;;;3.88;1.60;;;;;;;;;;5085134;28;20048;-78
2023/08/28 03:02:48;;;;;;;1.60;1.50;;;;;;;;;;5089245;28;20480;-78
2023/08/28 03:05:14;;;;;;;2.22;1.77;;;;;;;;;;5090908;28;20050;-78
2023/08/28 03:07:40;;;;;;;3.92;1.70;;;;;;;;;;5094313;28;20051;-78
2023/08/28 03:10:07;;;;;;;2.00;1.80;;;;;;;;;;5093089;28;20437;-78
2023/08/28 03:12:33;;;;;;;4.13;1.60;;;;;;;;;;5065176;28;20127;-78
2023/08/28 03:14:59;;;;;;;2.72;1.60;;;;;;;;;;5088725;28;20131;-78
2023/08/28 03:17:25;;;;;;;2.10;1.60;;;;;;;;;;5066046;28;20158;-79
2023/08/28 03:19:51;;;;;;;2.55;1.83;;;;;;;;;;5085450;28;20043;-78
2023/08/28 03:22:17;;;;;;;2.85;1.52;;;;;;;;;;5092352;28;20560;-77
2023/08/28 03:24:43;;;;;;;2.15;1.70;;;;;;;;;;5092034;28;20130;-78
2023/08/28 03:27:09;;;;;;;2.92;1.67;;;;;;;;;;5091494;28;20086;-78
2023/08/28 03:29:35;;;;;;;5.30;1.70;;;;;;;;;;5069225;28;20063;-79
2023/08/28 03:32:01;;;;;;;3.30;1.70;;;;;;;;;;5069015;28;20501;-77
2023/08/28 03:34:27;;;;;;;2.67;1.60;;;;;;;;;;5089834;28;20384;-78
2023/08/28 03:36:53;;;;;;;1.55;1.40;;;;;;;;;;5091880;28;20048;-78
2023/08/28 03:39:19;;;;;;;3.58;1.80;;;;;;;;;;5091129;28;20089;-78
2023/08/28 03:41:45;;;;;;;4.93;1.60;;;;;;;;;;5091791;28;20039;-78
2023/08/28 03:44:11;;;;;;;3.25;1.50;;;;;;;;;;5091440;28;20048;-78
2023/08/28 03:46:37;;;;;;;2.40;1.63;;;;;;;;;;5079757;28;20048;-79
2023/08/28 03:49:04;;;;;;;3.13;1.58;;;;;;;;;;5076782;28;20058;-78
2023/08/28 03:51:30;;;;;;;1.83;1.60;;;;;;;;;;5086772;28;20036;-78
2023/08/28 03:53:56;;;;;;;2.45;1.63;;;;;;;;;;5068909;28;20055;-77
2023/08/28 03:56:22;;;;;;;4.97;1.70;;;;;;;;;;5072519;28;20410;-78
2023/08/28 03:58:48;;;;;;;1.65;1.55;;;;;;;;;;5089869;28;20439;-78
2023/08/28 04:01:14;;;;;;;2.78;1.60;;;;;;;;;;5086877;28;20117;-78
2023/08/28 04:03:40;;;;;;;3.08;1.50;;;;;;;;;;5086060;28;20105;-77
2023/08/28 04:06:08;;;;;;;5.38;1.63;;;;;;;;;;5082616;28;20044;-78
2023/08/28 04:08:34;;;;;;;1.73;1.60;;;;;;;;;;5089957;28;20399;-77
2023/08/28 04:11:00;;;;;;;2.88;1.60;;;;;;;;;;5071412;28;20093;-78
2023/08/28 04:13:26;;;;;;;2.75;1.70;;;;;;;;;;5082248;28;20495;-78
2023/08/28 04:15:52;;;;;;;3.40;1.73;;;;;;;;;;5085903;28;20048;-77
2023/08/28 04:18:18;;;;;;;3.10;1.73;;;;;;;;;;5089263;28;20036;-77
2023/08/28 04:20:44;;;;;;;4.15;1.90;;;;;;;;;;5069085;28;20048;-77
2023/08/28 04:23:10;;;;;;;5.85;1.98;;;;;;;;;;5099605;28;20090;-77
2023/08/28 04:25:36;;;;;;;4.78;1.75;;;;;;;;;;5090534;28;20040;-78
2023/08/28 04:28:03;;;;;;;4.85;1.65;;;;;;;;;;5090406;28;20071;-78
2023/08/28 04:30:29;;;;;;;2.05;1.60;;;;;;;;;;5087884;28;20124;-78
2023/08/28 04:32:55;;;;;;;2.33;1.60;;;;;;;;;;5084351;28;20123;-78
2023/08/28 04:35:21;;;;;;;3.67;1.85;;;;;;;;;;5093661;28;20047;-78
2023/08/28 04:37:47;;;;;;;3.67;1.60;;;;;;;;;;5093583;28;20075;-78
2023/08/28 04:40:13;;;;;;;4.15;1.90;;;;;;;;;;5094031;28;20043;-78
2023/08/28 04:42:39;;;;;;;2.03;1.60;;;;;;;;;;5070565;28;20044;-78
2023/08/28 04:45:06;;;;;;;2.33;1.70;;;;;;;;;;5074283;28;20131;-77
2023/08/28 04:47:32;;;;;;;4.20;1.80;;;;;;;;;;5090396;28;20467;-78
2023/08/28 04:49:58;;;;;;;3.55;1.92;;;;;;;;;;5091501;28;20032;-77
2023/08/28 04:52:24;;;;;;;2.90;1.80;;;;;;;;;;5075634;28;20044;-78
2023/08/28 04:54:50;;;;;;;4.07;1.90;;;;;;;;;;5075099;28;20418;-78
2023/08/28 04:57:16;;;;;;;5.03;2.10;;;;;;;;;;5095361;28;20044;-78
2023/08/28 04:59:42;;;;;;;3.92;1.98;;;;;;;;;;5071711;28;20048;-78
2023/08/28 05:02:08;;;;;;;2.22;1.85;;;;;;;;;;5071423;28;20131;-78
2023/08/28 05:04:34;;;;;;;2.92;1.75;;;;;;;;;;5085586;28;20150;-78
2023/08/28 05:07:02;;;;;;;3.05;1.88;;;;;;;;;;5091058;28;20466;-78
2023/08/28 05:09:28;;;;;;;4.53;2.10;;;;;;;;;;5073295;28;20116;-78
2023/08/28 05:11:54;;;;;;;6.40;2.00;;;;;;;;;;5073938;28;20059;-78
2023/08/28 05:14:20;;;;;;;8.07;2.90;;;;;;;;;;5092415;28;20059;-78
2023/08/28 05:16:46;;;;;;;4.50;2.08;;;;;;;;;;5083887;28;20052;-77
2023/08/28 05:19:12;;;;;;;6.10;1.95;;;;;;;;;;5089019;28;20081;-78
2023/08/28 05:21:38;;;;;;;2.47;1.80;;;;;;;;;;5084919;28;20375;-78
2023/08/28 05:24:04;;;;;;;4.90;1.85;;;;;;;;;;5070420;28;20051;-78
2023/08/28 05:26:30;;;;;;;5.10;2.10;;;;;;;;;;5091553;28;20391;-77
2023/08/28 05:28:56;;;;;;;3.58;1.88;;;;;;;;;;5093380;28;20372;-78
2023/08/28 05:31:22;;;;;;;4.28;1.70;;;;;;;;;;5071757;28;20097;-77
2023/08/28 05:33:48;;;;;;;6.53;2.00;;;;;;;;;;5089930;28;20055;-77
2023/08/28 05:36:14;;;;;;;3.60;1.73;;;;;;;;;;5090990;28;20044;-77
2023/08/28 05:38:40;;;;;;;4.30;1.80;;;;;;;;;;5084961;28;20054;-78
2023/08/28 05:41:06;;;;;;;3.80;1.83;;;;;;;;;;5089775;28;20127;-78
2023/08/28 05:43:32;;;;;;;4.78;1.75;;;;;;;;;;5090851;28;20622;-78
2023/08/28 05:45:58;;;;;;;1.60;1.50;;;;;;;;;;5089322;28;20062;-78
2023/08/28 05:48:24;;;;;;;3.97;1.60;;;;;;;;;;5090192;28;20466;-77
2023/08/28 05:50:51;;;;;;;4.63;1.70;;;;;;;;;;5090318;28;20032;-77
2023/08/28 05:53:17;;;;;;;3.90;1.67;;;;;;;;;;5091647;28;20056;-76
2023/08/28 05:55:43;;;;;;;4.03;1.85;;;;;;;;;;5093486;28;20047;-77
2023/08/28 05:58:09;;;;;;;2.00;1.77;;;;;;;;;;5079165;28;20404;-77
2023/08/28 06:00:35;;;;;;;4.00;1.75;;;;;;;;;;5088034;28;20491;-77
2023/08/28 06:03:01;;;;;;;1.85;1.63;;;;;;;;;;5092443;28;20460;-76
2023/08/28 06:05:27;;;;;;;1.98;1.67;;;;;;;;;;5091149;28;20040;-77
2023/08/28 06:07:53;;;;;;;3.00;1.80;;;;;;;;;;5082614;28;20046;-77
2023/08/28 06:10:19;;;;;;;5.03;2.03;;;;;;;;;;5090423;28;20419;-77
2023/08/28 06:12:48;;;;;;;4.10;1.55;;;;;;;;;;5086286;28;20040;-76
2023/08/28 06:15:17;;;;;;;3.83;1.70;;;;;;;;;;5065135;28;20045;-77
2023/08/28 06:17:43;;;;;;;2.08;1.50;;;;;;;;;;5072513;28;20070;-78
2023/08/28 06:20:12;;;;;;;2.90;1.70;;;;;;;;;;5093032;28;20059;-77
2023/08/28 06:22:39;;;;;;;3.97;1.90;;;;;;;;;;5089759;28;20047;-78
2023/08/28 06:25:05;;;;;;;2.95;1.73;;;;;;;;;;5089938;28;20046;-78
2023/08/28 06:27:31;;;;;;;3.22;1.80;;;;;;;;;;5084594;28;20056;-78
2023/08/28 06:29:57;;;;;;;3.60;1.80;;;;;;;;;;5081590;28;20056;-77
2023/08/28 06:32:23;;;;;;;3.78;1.70;;;;;;;;;;5065360;28;20051;-78
2023/08/28 06:34:49;;;;;;;3.05;1.83;;;;;;;;;;5091932;28;20047;-75
2023/08/28 06:37:15;;;;;;;4.88;1.90;;;;;;;;;;5090244;28;20044;-75
2023/08/28 06:39:41;;;;;;;2.17;1.65;;;;;;;;;;5072609;28;20051;-76
2023/08/28 06:42:08;;;;;;;2.60;1.50;;;;;;;;;;5091479;28;20282;-76
2023/08/28 06:44:34;;;;;;;4.07;1.60;;;;;;;;;;5087626;28;20562;-76
2023/08/28 06:47:00;;;;;;;2.15;1.67;;;;;;;;;;5084185;28;20048;-76
2023/08/28 06:49:26;;;;;;;4.10;1.65;;;;;;;;;;5091679;28;20089;-77
2023/08/28 06:51:52;;;;;;;1.60;1.50;;;;;;;;;;5088825;28;20040;-76
2023/08/28 06:54:18;;;;;;;2.42;1.90;;;;;;;;;;5089888;28;20134;-76
2023/08/28 06:56:44;;;;;;;3.03;1.70;;;;;;;;;;5070532;28;20055;-76
2023/08/28 06:59:10;;;;;;;8.02;1.70;;;;;;;;;;5061796;28;20040;-76
2023/08/28 07:01:36;;;;;;;1.70;1.60;;;;;;;;;;5087865;28;20040;-76
2023/08/28 07:04:04;;;;;;;2.55;1.58;;;;;;;;;;5073228;28;20067;-76
2023/08/28 07:06:30;;;;;;;1.77;1.55;;;;;;;;;;5072385;28;20149;-75
2023/08/28 07:08:57;;;;;;;1.70;1.60;;;;;;;;;;5083856;28;20064;-75
2023/08/28 07:11:23;;;;;;;2.22;1.40;;;;;;;;;;5090171;28;20056;-76
2023/08/28 07:13:50;;;;;;;3.40;1.65;;;;;;;;;;5090591;28;20122;-76
2023/08/28 07:16:16;;;;;;;3.35;1.50;;;;;;;;;;5085943;28;20177;-79
2023/08/28 07:18:43;;;;;;;2.25;1.70;;;;;;;;;;5067733;28;21617;-78
2023/08/28 07:21:09;;;;;;;3.10;1.90;;;;;;;;;;5091045;28;20048;-79
2023/08/28 07:23:38;;;;;;;4.03;1.67;;;;;;;;;;5090920;28;20040;-79
2023/08/28 07:26:06;;;;;;;4.10;1.83;;;;;;;;;;5089757;28;20056;-79
2023/08/28 07:28:32;;;;;;;2.42;1.60;;;;;;;;;;5075483;28;20480;-78
2023/08/28 07:30:59;;;;;;;3.22;1.70;;;;;;;;;;5090400;28;20051;-79
2023/08/28 07:33:25;;;;;;;4.40;1.80;;;;;;;;;;5072589;28;20040;-79
2023/08/28 07:35:51;;;;;;;2.67;1.60;;;;;;;;;;5088885;28;20040;-78
2023/08/28 07:38:18;;;;;;;2.50;1.80;;;;;;;;;;5089832;28;20376;-79
2023/08/28 07:40:46;;;;;;;1.75;1.40;;;;;;;;;;5090590;28;20411;-78
2023/08/28 07:43:12;;;;;;;1.50;1.40;;;;;;;;;;5073729;28;20048;-79
2023/08/28 07:45:38;;;;;;;1.83;1.48;;;;;;;;;;5090405;28;20050;-79
2023/08/28 07:48:05;;;;;;;2.30;1.70;;;;;;;;;;5098302;28;20044;-77
2023/08/28 07:50:31;;;;;;;2.67;1.50;;;;;;;;;;5072591;28;20043;-78
2023/08/28 07:53:00;;;;;;;7.45;1.90;;;;;;;;;;5090511;28;20127;-78
2023/08/28 07:55:26;;;;;;;3.35;1.65;;;;;;;;;;5084692;28;20391;-79
2023/08/28 07:57:53;;;;;;;3.33;1.70;;;;;;;;;;5087614;28;21126;-78
2023/08/28 08:00:22;;;;;;;3.40;1.58;;;;;;;;;;5072555;28;20059;-78
2023/08/28 08:02:51;;;;;;;4.13;1.40;;;;;;;;;;5070173;28;20044;-78
2023/08/28 08:05:17;;;;;;;3.17;1.45;;;;;;;;;;5089344;28;20047;-77
2023/08/28 08:07:44;;;;;;;1.52;1.40;;;;;;;;;;5090280;28;20047;-79
2023/08/28 08:10:10;;;;;;;1.80;1.60;;;;;;;;;;5090528;28;20534;-78
2023/08/28 08:12:38;;;;;;;2.08;1.70;;;;;;;;;;5089323;28;20075;-79
2023/08/28 08:15:04;;;;;;;2.45;1.65;;;;;;;;;;5089651;28;20257;-78
2023/08/28 08:17:30;;;;;;;2.85;1.70;;;;;;;;;;5092109;28;20495;-78
2023/08/28 08:19:56;;;;;;;3.42;1.70;;;;;;;;;;5071573;28;20032;-78
2023/08/28 08:22:22;;;;;;;1.75;1.65;;;;;;;;;;5090867;28;20395;-79
2023/08/28 08:24:48;;;;;;;5.13;1.80;;;;;;;;;;5090119;28;20518;-79
2023/08/28 08:27:14;;;;;;;3.30;1.73;;;;;;;;;;5091192;28;20044;-79
2023/08/28 08:29:40;;;;;;;2.60;2.10;;;;;;;;;;5089339;28;20040;-79
2023/08/28 08:32:06;;;;;;;3.75;1.67;;;;;;;;;;5088729;28;20510;-79
2023/08/28 08:34:32;;;;;;;2.22;1.60;;;;;;;;;;5090902;28;20032;-79
2023/08/28 08:36:59;;;;;;;2.85;1.75;;;;;;;;;;5089913;28;20047;-79
2023/08/28 08:39:25;;;;;;;3.55;2.13;;;;;;;;;;5090338;28;20051;-78
2023/08/28 08:41:51;;;;;;;2.03;1.65;;;;;;;;;;5091276;28;20059;-78
2023/08/28 08:44:17;;;;;;;2.65;1.70;;;;;;;;;;5069826;28;20040;-78
2023/08/28 08:46:46;;;;;;;1.92;1.50;;;;;;;;;;5073612;28;20123;-78
2023/08/28 08:49:13;;;;;;;3.22;1.88;;;;;;;;;;5069518;28;20471;-78
2023/08/28 08:51:43;;;;;;;2.60;1.80;;;;;;;;;;5072547;28;20067;-79
2023/08/28 08:54:21;;;;;;;4.00;1.63;;;;;;;;;;5072479;28;20087;-79
2023/08/28 08:56:49;;;;;;;2.42;1.58;;;;;;;;;;5090790;28;20052;-79
2023/08/28 08:59:16;;;;;;;1.60;1.50;;;;;;;;;;5094598;28;20055;-79
2023/08/28 09:01:42;;;;;;;2.33;1.58;;;;;;;;;;5091423;28;20048;-79
2023/08/28 09:04:09;;;;;;;2.28;1.60;;;;;;;;;;5071608;28;20471;-78
2023/08/28 09:06:36;;;;;;;4.57;1.80;;;;;;;;;;5089263;28;20127;-78
2023/08/28 09:09:06;;;;;;;2.15;1.70;;;;;;;;;;5073468;28;20060;-78
2023/08/28 09:11:32;;;;;;;1.67;1.58;;;;;;;;;;5090715;28;20096;-78
2023/08/28 09:13:58;;;;;;;2.55;1.70;;;;;;;;;;5092421;28;20044;-78
2023/08/28 09:16:24;;;;;;;2.17;1.55;;;;;;;;;;5076230;28;20468;-79
2023/08/28 09:18:50;;;;;;;2.35;1.70;;;;;;;;;;5075156;28;20051;-79
2023/08/28 09:21:16;;;;;;;3.22;1.60;;;;;;;;;;5094102;28;20154;-78
2023/08/28 09:23:46;;;;;;;2.08;1.88;;;;;;;;;;5093000;28;20457;-79
2023/08/28 09:26:16;;;;;;;3.13;1.52;;;;;;;;;;5101631;28;20087;-79
2023/08/28 09:28:42;;;;;;;2.67;1.80;;;;;;;;;;5095366;28;20076;-79
2023/08/28 09:31:08;;;;;;;4.35;1.80;;;;;;;;;;5076161;28;20086;-79
2023/08/28 09:33:44;;;;;;;6.00;1.75;;;;;;;;;;5095156;28;20044;-79
2023/08/28 09:36:18;;;;;;;3.05;1.63;;;;;;;;;;5095026;28;20101;-79
2023/08/28 09:38:44;;;;;;;1.83;1.45;;;;;;;;;;5074494;28;20055;-78
2023/08/28 09:41:11;;;;;;;1.60;1.48;;;;;;;;;;5094332;28;20040;-79
2023/08/28 09:43:37;;;;;;;4.95;1.85;;;;;;;;;;5092939;28;20197;-79
2023/08/28 09:46:07;;;;;;;2.15;1.70;;;;;;;;;;5073655;28;20411;-79
2023/08/28 09:48:33;;;;;;;3.80;1.90;;;;;;;;;;5101192;28;20046;-79
2023/08/28 09:51:06;;;;;;;2.28;1.90;;;;;;;;;;5081238;28;20044;-79
2023/08/28 09:53:32;;;;;;;;;;;;;;;;;;5076984;28;20186;-79
2023/08/28 09:55:58;;;;;;;2.88;2.28;;;;;;;;;;5091730;28;20065;-79
2023/08/28 09:58:26;;;;;;;4.00;1.77;;;;;;;;;;5093562;28;20480;-80
2023/08/28 10:00:53;;;;;;;1.90;1.70;;;;;;;;;;5074066;28;20093;-79
2023/08/28 10:03:20;;;;;;;2.65;1.73;;;;;;;;;;5075744;28;20505;-82
2023/08/28 10:05:47;;;;;;;2.90;1.80;;;;;;;;;;5072396;28;20044;-84
2023/08/28 10:08:14;;;;;;;3.63;1.50;;;;;;;;;;5090841;28;20437;-79
2023/08/28 10:10:51;;;;;;;2.60;1.63;;;;;;;;;;5091523;28;20119;-79
2023/08/28 10:13:21;;;;;;;2.13;1.77;;;;;;;;;;5076436;28;20048;-81
2023/08/28 10:15:52;;;;;;;3.55;1.70;;;;;;;;;;5090155;28;20044;-79
2023/08/28 10:18:26;;;;;;;1.73;1.63;;;;;;;;;;5088155;28;20044;-79
2023/08/28 10:20:52;;;;;;;1.60;1.50;;;;;;;;;;5067990;28;20059;-79
2023/08/28 10:23:19;;;;;;;2.58;1.60;;;;;;;;;;5092831;28;20374;-79
2023/08/28 10:25:46;;;;;;;2.95;1.60;;;;;;;;;;5091491;28;20051;-78
2023/08/28 10:28:13;;;;;;;1.88;1.52;;;;;;;;;;5079389;28;20082;-78
2023/08/28 10:30:39;;;;;;;2.85;1.65;;;;;;;;;;5072815;28;20048;-79
2023/08/28 10:33:07;;;;;;;4.68;1.60;;;;;;;;;;5092349;28;20059;-79
2023/08/28 10:35:33;;;;;;;3.08;1.50;;;;;;;;;;5091185;28;20044;-79
2023/08/28 10:38:00;;;;;;;2.75;1.55;;;;;;;;;;5091431;28;20036;-79
2023/08/28 10:40:26;;;;;;;2.88;1.70;;;;;;;;;;5092687;28;20036;-79
2023/08/28 10:42:53;;;;;;;3.10;1.67;;;;;;;;;;5092314;28;20466;-79
2023/08/28 10:45:20;;;;;;;1.48;1.30;;;;;;;;;;5090193;28;20047;-79
2023/08/28 10:47:49;;;;;;;1.60;1.50;;;;;;;;;;5091149;28;20051;-80
2023/08/28 10:50:15;;;;;;;2.70;1.55;;;;;;;;;;5070959;28;20043;-79
2023/08/28 10:52:41;;;;;;;2.85;1.40;;;;;;;;;;5092369;28;20040;-78
2023/08/28 10:55:09;;;;;;;2.95;1.48;;;;;;;;;;5091259;28;20056;-79
2023/08/28 10:57:40;;;;;;;1.48;1.38;;;;;;;;;;5091425;28;20044;-79
2023/08/28 11:00:16;;;;;;;4.85;1.50;;;;;;;;;;5073521;28;20060;-79
2023/08/28 11:03:00;;;;;;;2.40;1.60;;;;;;;;;;5091894;28;20109;-79
2023/08/28 11:05:26;;;;;;;3.08;1.70;;;;;;;;;;5074744;28;20109;-79
2023/08/28 11:07:54;;;;;;;2.60;1.50;;;;;;;;;;5090505;28;20662;-78
2023/08/28 11:10:21;;;;;;;3.65;1.60;;;;;;;;;;5086964;28;20052;-78
2023/08/28 11:12:55;;;;;;;4.70;1.60;;;;;;;;;;5089374;28;20093;-78
2023/08/28 11:15:28;;;;;;;3.83;1.52;;;;;;;;;;5091134;28;20495;-79
2023/08/28 11:18:12;;;;;;;1.88;1.60;;;;;;;;;;5095329;28;20551;-79
2023/08/28 11:20:38;;;;;;;4.05;1.67;;;;;;;;;;5072211;28;20078;-79
2023/08/28 11:23:04;;;;;;;1.98;1.42;;;;;;;;;;5074129;28;20047;-79
2023/08/28 11:25:38;;;;;;;2.75;1.50;;;;;;;;;;5092423;28;20126;-79
2023/08/28 11:28:04;;;;;;;;;;;;;;;;;;5105052;28;20040;-79
2023/08/28 11:30:30;;;;;;;1.70;1.40;;;;;;;;;;5089264;28;20282;-78
2023/08/28 11:32:56;;;;;;;2.80;1.63;;;;;;;;;;5087302;28;20454;-79
2023/08/28 11:35:23;;;;;;;1.48;1.45;;;;;;;;;;5091387;28;20407;-79
2023/08/28 11:37:53;;;;;;;3.88;1.77;;;;;;;;;;5095832;28;20089;-79
2023/08/28 11:40:23;;;;;;;3.88;1.70;;;;;;;;;;5073871;28;20048;-79
2023/08/28 11:42:50;;;;;;;4.43;1.60;;;;;;;;;;5091638;28;20044;-79
2023/08/28 11:45:20;;;;;;;1.50;1.40;;;;;;;;;;5071667;28;20040;-79
2023/08/28 11:47:49;;;;;;;3.15;1.50;;;;;;;;;;5088706;28;20044;-79
2023/08/28 11:50:17;;;;;;;2.83;1.30;;;;;;;;;;5070734;28;20048;-79
2023/08/28 11:52:47;;;;;;;1.85;1.40;;;;;;;;;;5089535;28;20043;-79
2023/08/28 11:55:13;;;;;;;2.17;1.40;;;;;;;;;;5088188;28;20510;-79
2023/08/28 11:57:39;;;;;;;1.77;1.30;;;;;;;;;;5091989;28;20047;-78
2023/08/28 12:00:11;;;;;;;2.80;1.50;;;;;;;;;;5077254;28;20542;-79
2023/08/28 12:02:37;;;;;;;1.73;1.30;;;;;;;;;;5091224;28;20052;-78
2023/08/28 12:05:04;;;;;;;2.83;1.35;;;;;;;;;;5083463;28;20075;-78
2023/08/28 12:07:30;;;;;;;1.60;1.40;;;;;;;;;;5068530;28;20044;-79
2023/08/28 12:09:57;;;;;;;1.70;1.35;;;;;;;;;;5088668;28;20384;-79
2023/08/28 12:12:23;;;;;;;1.70;1.40;;;;;;;;;;5087950;28;20070;-79
2023/08/28 12:14:50;;;;;;;1.65;1.50;;;;;;;;;;5090365;28;20127;-78
2023/08/28 12:17:22;;;;;;;3.28;1.60;;;;;;;;;;5078628;28;20155;-79
2023/08/28 12:19:49;;;;;;;3.03;1.40;;;;;;;;;;5070958;28;20049;-79
2023/08/28 12:22:16;;;;;;;4.55;1.65;;;;;;;;;;5084616;28;20082;-79
2023/08/28 12:24:46;;;;;;;3.35;1.40;;;;;;;;;;5072381;28;20442;-78
2023/08/28 12:27:13;;;;;;;2.72;1.50;;;;;;;;;;5095819;28;20036;-79
2023/08/28 12:29:41;;;;;;;1.52;1.40;;;;;;;;;;5089714;28;20059;-78
2023/08/28 12:32:10;;;;;;;3.53;1.42;;;;;;;;;;5087804;28;20043;-79
2023/08/28 12:34:37;;;;;;;2.42;1.65;;;;;;;;;;5071884;28;20139;-79
2023/08/28 12:37:07;;;;;;;2.80;1.65;;;;;;;;;;5069778;28;20066;-79
2023/08/28 12:39:33;;;;;;;2.30;1.50;;;;;;;;;;5071728;28;20090;-79
2023/08/28 12:41:59;;;;;;;2.63;1.55;;;;;;;;;;5091325;28;20040;-79
2023/08/28 12:44:27;;;;;;;1.55;1.42;;;;;;;;;;5092361;28;20048;-79
2023/08/28 12:46:53;;;;;;;1.40;1.33;;;;;;;;;;5094075;28;20104;-79
2023/08/28 12:49:20;;;;;;;2.40;1.40;;;;;;;;;;5089592;28;20536;-79
2023/08/28 12:51:46;;;;;;;4.82;1.50;;;;;;;;;;5083975;28;20044;-79
2023/08/28 12:54:13;;;;;;;1.50;1.40;;;;;;;;;;5061846;28;20079;-79
2023/08/28 12:56:42;;;;;;;1.60;1.50;;;;;;;;;;5071262;28;20562;-78
2023/08/28 12:59:08;;;;;;;2.03;1.55;;;;;;;;;;5085352;28;20491;-79
2023/08/28 13:01:34;;;;;;;2.05;1.50;;;;;;;;;;5088282;28;20047;-79
2023/08/28 13:04:00;;;;;;;2.28;1.40;;;;;;;;;;5091072;28;20672;-79
2023/08/28 13:06:26;;;;;;;2.50;1.48;;;;;;;;;;5076347;28;20356;-79
2023/08/28 13:08:52;;;;;;;1.85;1.40;;;;;;;;;;5094817;28;20052;-79
2023/08/28 13:11:18;;;;;;;1.45;1.30;;;;;;;;;;5097562;28;20052;-79
2023/08/28 13:13:44;;;;;;;1.55;1.38;;;;;;;;;;5095097;28;20043;-79
2023/08/28 13:16:10;;;;;;;2.25;1.50;;;;;;;;;;5082884;28;20075;-78
2023/08/28 13:18:36;;;;;;;1.52;1.42;;;;;;;;;;5072132;28;20040;-79
2023/08/28 13:21:04;;;;;;;1.83;1.48;;;;;;;;;;5090887;28;20052;-78
2023/08/28 13:23:30;;;;;;;1.58;1.30;;;;;;;;;;5072264;28;20052;-77
2023/08/28 13:25:56;;;;;;;3.35;1.50;;;;;;;;;;5088601;28;20048;-79
2023/08/28 13:28:22;;;;;;;4.45;1.70;;;;;;;;;;5073626;28;20133;-78
2023/08/28 13:30:48;;;;;;;1.60;1.50;;;;;;;;;;5091975;28;20037;-77
2023/08/28 13:33:15;;;;;;;2.35;1.40;;;;;;;;;;5094964;28;20475;-78
2023/08/28 13:35:41;;;;;;;1.95;1.40;;;;;;;;;;5091625;28;20093;-79
2023/08/28 13:38:07;;;;;;;2.60;1.35;;;;;;;;;;5088441;28;20127;-79
2023/08/28 13:40:33;;;;;;;2.00;1.58;;;;;;;;;;5073764;28;20489;-79
2023/08/28 13:43:03;;;;;;;2.17;1.50;;;;;;;;;;5074596;28;20044;-78
2023/08/28 13:45:29;;;;;;;3.85;1.90;;;;;;;;;;5082161;28;20039;-79
2023/08/28 13:47:56;;;;;;;2.42;1.23;;;;;;;;;;5086797;28;20048;-79
2023/08/28 13:50:22;;;;;;;1.58;1.40;;;;;;;;;;5092456;28;20092;-79
2023/08/28 13:52:48;;;;;;;1.67;1.40;;;;;;;;;;5092817;28;20096;-79
2023/08/28 13:55:14;;;;;;;2.13;1.70;;;;;;;;;;5090449;28;20113;-79
2023/08/28 13:57:40;;;;;;;1.80;1.40;;;;;;;;;;5093353;28;20044;-79
2023/08/28 14:00:12;;;;;;;2.80;1.42;;;;;;;;;;5090083;28;20093;-79
2023/08/28 14:02:39;;;;;;;2.83;1.60;;;;;;;;;;5072856;28;20052;-79
2023/08/28 14:05:06;;;;;;;2.13;1.45;;;;;;;;;;5071935;28;20510;-79
2023/08/28 14:07:32;;;;;;;1.50;1.40;;;;;;;;;;5076615;28;20051;-79
2023/08/28 14:09:58;;;;;;;1.55;1.40;;;;;;;;;;5112697;28;20062;-79
2023/08/28 14:12:24;;;;;;;3.05;1.60;;;;;;;;;;5093009;28;20135;-79
2023/08/28 14:14:50;;;;;;;2.55;1.40;;;;;;;;;;5073687;28;20170;-80
2023/08/28 14:17:18;;;;;;;1.50;1.20;;;;;;;;;;5089552;28;20509;-80
2023/08/28 14:19:44;;;;;;;5.05;1.45;;;;;;;;;;5092826;28;20036;-78
2023/08/28 14:22:10;;;;;;;1.67;1.45;;;;;;;;;;5087346;28;20137;-78
2023/08/28 14:24:37;;;;;;;1.52;1.40;;;;;;;;;;5091958;28;20036;-78
2023/08/28 14:27:04;;;;;;;1.60;1.30;;;;;;;;;;5087063;28;20044;-78
2023/08/28 14:29:30;;;;;;;1.00;1.00;;;;;;;;;;5093444;28;20101;-78
2023/08/28 14:31:56;;;;;;;1.55;1.30;;;;;;;;;;5087444;28;20079;-76
2023/08/28 14:34:22;;;;;;;1.88;1.23;;;;;;;;;;5089664;28;20382;-77
2023/08/28 14:36:48;;;;;;;3.45;1.30;;;;;;;;;;5090497;28;20127;-75
2023/08/28 14:39:14;;;;;;;1.50;1.20;;;;;;;;;;5085610;28;20036;-73
2023/08/28 14:41:40;;;;;;;1.80;1.20;;;;;;;;;;5087662;28;20032;-74